Time;durP1;ratioP1;P1;durP2;ratioP2;P2;SDS_P1;SDS_P2;PMS_P1;PMS_P2;Temp;Humidity;BMP_temperature;BMP_pressure;BME280_temperature;BME280_humidity;BME280_pressure;Samples;Min_cycle;Max_cycle;Signal;HPM_P1;HPM_P2
2022/07/29 00:01:07;;;;;;;14.30;12.15;;;;;;;20.97;79.47;97683.66;10370188;28;20509;-57
2022/07/29 00:06:06;;;;;;;20.88;17.05;;;;;;;20.84;81.31;97680.69;10370690;28;20075;-57
2022/07/29 00:11:05;;;;;;;22.73;17.85;;;;;;;20.52;82.97;97683.84;10370371;28;20052;-56
2022/07/29 00:16:04;;;;;;;21.92;18.48;;;;;;;20.05;85.34;97671.72;10370963;28;20503;-56
2022/07/29 00:21:03;;;;;;;20.00;17.83;;;;;;;19.76;87.13;97678.13;10369551;28;20052;-56
2022/07/29 00:26:02;;;;;;;22.63;19.05;;;;;;;19.68;87.02;97681.06;10370668;28;20032;-56
2022/07/29 00:31:01;;;;;;;23.95;20.25;;;;;;;19.54;88.94;97692.09;10369827;28;20025;-56
2022/07/29 00:36:00;;;;;;;21.77;18.73;;;;;;;19.29;90.65;97686.88;10369860;28;20029;-56
2022/07/29 00:40:59;;;;;;;22.02;17.67;;;;;;;19.20;90.26;97668.81;10369896;28;20572;-56
2022/07/29 00:45:58;;;;;;;26.25;19.20;;;;;;;19.35;89.55;97684.03;10370001;28;20045;-56
2022/07/29 00:51:02;;;;;;;23.67;19.60;;;;;;;19.30;89.83;97688.63;10369439;28;20443;-56
2022/07/29 00:56:01;;;;;;;24.20;18.50;;;;;;;19.29;89.70;97705.28;10370440;28;20089;-56
2022/07/29 01:01:00;;;;;;;22.38;19.75;;;;;;;19.27;89.64;97712.38;10377525;28;20108;-56
2022/07/29 01:06:00;;;;;;;24.45;19.30;;;;;;;19.19;89.64;97701.31;10377117;28;20029;-56
2022/07/29 01:11:01;;;;;;;25.40;21.20;;;;;;;19.25;89.34;97708.94;10376469;28;20480;-56
2022/07/29 01:16:09;;;;;;;24.02;20.67;;;;;;;19.20;90.09;97706.47;10377288;28;20076;-56
2022/07/29 01:21:20;;;;;;;24.50;19.17;;;;;;;19.25;89.62;97716.84;10376345;28;20064;-56
2022/07/29 01:26:40;;;;;;;20.88;17.88;;;;;;;19.25;89.63;97706.31;10376211;28;20056;-57
2022/07/29 01:31:48;;;;;;;19.25;17.17;;;;;;;19.23;89.36;97711.66;10376585;28;20512;-58
2022/07/29 01:36:54;;;;;;;21.87;19.27;;;;;;;19.22;89.41;97707.28;10376502;28;20068;-57
2022/07/29 01:42:16;;;;;;;22.05;19.02;;;;;;;19.16;89.74;97702.28;10376024;28;20111;-57
2022/07/29 01:47:20;;;;;;;22.83;18.98;;;;;;;19.11;90.04;97695.44;10364893;28;20068;-57
2022/07/29 01:52:43;;;;;;;22.75;18.25;;;;;;;19.09;89.95;97694.63;10376668;28;20072;-57
2022/07/29 01:57:47;;;;;;;22.10;17.67;;;;;;;19.10;89.75;97693.75;10375353;28;20068;-57
2022/07/29 02:02:48;;;;;;;24.77;18.58;;;;;;;18.98;90.75;97695.91;10375064;28;20072;-57
2022/07/29 02:07:48;;;;;;;22.45;19.08;;;;;;;18.70;91.24;97685.50;10372927;28;20064;-57
2022/07/29 02:12:50;;;;;;;24.67;20.90;;;;;;;18.72;91.21;97698.59;10374157;28;20056;-57
2022/07/29 02:17:53;;;;;;;21.45;17.52;;;;;;;18.64;91.26;97690.06;10374439;28;20068;-57
2022/07/29 02:22:54;;;;;;;25.10;18.70;;;;;;;18.53;91.47;97693.94;10374548;28;20075;-57
2022/07/29 02:27:54;;;;;;;21.13;18.70;;;;;;;18.50;91.53;97701.94;10373848;28;20064;-57
2022/07/29 02:32:54;;;;;;;23.08;18.40;;;;;;;18.47;91.50;97694.13;10373173;28;20057;-57
2022/07/29 02:43:12;;;;;;;20.40;16.38;;;;;;;18.54;91.18;97703.53;10373872;28;20080;-57
2022/07/29 02:48:15;;;;;;;19.45;15.98;;;;;;;18.53;90.92;97696.56;10372999;28;20079;-57
2022/07/29 02:53:19;;;;;;;21.05;18.42;;;;;;;18.50;91.33;97707.19;10373199;28;20503;-57
2022/07/29 02:58:44;;;;;;;23.27;18.10;;;;;;;18.46;91.22;97699.47;10372211;28;20052;-57
2022/07/29 03:03:47;;;;;;;22.33;17.77;;;;;;;18.44;91.10;97706.53;10365743;28;20068;-58
2022/07/29 03:08:47;;;;;;;24.48;17.23;;;;;;;18.36;90.61;97702.38;10373070;28;20061;-58
2022/07/29 03:13:46;;;;;;;22.73;16.13;;;;;;;18.36;90.56;97697.13;10371882;28;20060;-56
2022/07/29 03:18:46;;;;;;;21.15;17.95;;;;;;;18.35;90.41;97703.28;10371713;28;20056;-56
2022/07/29 03:23:45;;;;;;;18.90;15.65;;;;;;;18.25;90.07;97687.88;10372794;28;20504;-56
2022/07/29 03:28:44;;;;;;;17.60;12.50;;;;;;;18.35;89.35;97705.06;10371363;28;20471;-56
2022/07/29 03:33:43;;;;;;;14.15;12.07;;;;;;;18.18;88.32;97708.25;10371742;28;20458;-55
2022/07/29 03:38:44;;;;;;;15.73;11.07;;;;;;;17.92;89.00;97715.19;10371869;28;20420;-56
2022/07/29 03:43:44;;;;;;;15.13;11.68;;;;;;;17.97;88.32;97709.78;10371783;28;20523;-56
2022/07/29 03:48:48;;;;;;;14.60;10.15;;;;;;;18.01;87.39;97697.41;10371066;28;20052;-56
2022/07/29 03:53:47;;;;;;;14.18;10.05;;;;;;;18.14;86.01;97707.47;10370805;28;20487;-56
2022/07/29 03:58:46;;;;;;;12.70;10.10;;;;;;;18.13;85.69;97713.63;10370368;28;20484;-56
2022/07/29 04:03:46;;;;;;;15.73;12.25;;;;;;;18.07;85.79;97711.19;10369816;28;20052;-56
2022/07/29 04:08:45;;;;;;;18.08;14.77;;;;;;;18.10;85.97;97720.75;10367971;28;20067;-58
2022/07/29 04:13:44;;;;;;;21.65;18.25;;;;;;;18.18;87.65;97727.47;10369885;28;20025;-56
2022/07/29 04:18:43;;;;;;;24.67;18.98;;;;;;;18.31;87.87;97719.19;10370108;28;20040;-56
2022/07/29 04:23:44;;;;;;;20.38;17.80;;;;;;;18.51;87.88;97722.03;10368722;28;20112;-56
2022/07/29 04:28:44;;;;;;;19.95;16.60;;;;;;;18.70;87.91;97716.19;10369081;28;20509;-56
2022/07/29 04:33:43;;;;;;;21.27;17.70;;;;;;;18.90;87.88;97721.63;10374180;28;20504;-56
2022/07/29 04:38:42;;;;;;;21.02;17.20;;;;;;;18.98;87.10;97719.56;10376781;28;20492;-56
2022/07/29 04:43:41;;;;;;;23.95;19.05;;;;;;;19.09;87.10;97726.19;10378715;28;20120;-56
2022/07/29 04:48:40;;;;;;;26.80;19.38;;;;;;;19.16;86.28;97725.09;10370860;28;20357;-56
2022/07/29 04:53:39;;;;;;;25.08;19.65;;;;;;;19.28;86.21;97731.69;10375676;28;20068;-56
2022/07/29 04:58:38;;;;;;;25.02;17.90;;;;;;;19.43;85.68;97742.47;10375655;28;20037;-56
2022/07/29 05:03:37;;;;;;;24.92;18.23;;;;;;;19.44;85.48;97733.69;10373755;28;20094;-56
2022/07/29 05:08:36;;;;;;;19.65;17.50;;;;;;;19.54;85.08;97730.72;10375008;28;20093;-56
2022/07/29 05:13:35;;;;;;;21.13;17.65;;;;;;;19.62;85.04;97736.56;10374872;28;20068;-56
2022/07/29 05:18:34;;;;;;;22.58;18.27;;;;;;;19.63;84.31;97746.19;10375505;28;20056;-56
2022/07/29 05:23:33;;;;;;;23.05;18.13;;;;;;;19.64;84.47;97737.38;10373040;28;20063;-56
2022/07/29 05:28:35;;;;;;;22.55;19.85;;;;;;;19.62;84.49;97744.47;10376616;28;20052;-56
2022/07/29 05:33:34;;;;;;;27.13;18.80;;;;;;;19.60;84.61;97748.94;10373614;28;20470;-57
2022/07/29 05:38:34;;;;;;;23.58;19.48;;;;;;;19.55;84.59;97743.78;10374650;28;20489;-57
2022/07/29 05:43:33;;;;;;;22.35;19.85;;;;;;;19.60;84.77;97759.44;10374096;28;20511;-55
2022/07/29 05:48:32;;;;;;;22.60;19.35;;;;;;;19.74;84.64;97769.47;10375126;28;20514;-57
2022/07/29 05:53:31;;;;;;;23.20;19.48;;;;;;;19.98;83.83;97765.91;10351966;28;20037;-57
2022/07/29 05:58:30;;;;;;;26.08;19.65;;;;;;;20.27;82.70;97772.66;10359965;28;20175;-57
2022/07/29 06:03:30;;;;;;;21.98;17.92;;;;;;;20.54;81.36;97771.63;10370864;28;20129;-57
2022/07/29 06:08:28;;;;;;;20.85;17.15;;;;;;;20.81;80.11;97764.38;10373908;28;20064;-57
2022/07/29 06:13:28;;;;;;;18.63;16.65;;;;;;;21.06;78.29;97769.47;10374391;28;20155;-57
2022/07/29 06:18:26;;;;;;;20.63;15.93;;;;;;;21.28;77.19;97780.81;10373972;28;20053;-57
2022/07/29 06:23:25;;;;;;;18.42;14.98;;;;;;;21.47;76.70;97774.72;10361310;28;20036;-57
2022/07/29 06:28:24;;;;;;;18.13;15.25;;;;;;;21.69;76.05;97777.28;10352394;28;20119;-56
2022/07/29 06:33:23;;;;;;;16.33;13.00;;;;;;;21.89;73.77;97777.19;10372724;28;20020;-56
2022/07/29 06:38:22;;;;;;;19.75;14.32;;;;;;;21.92;73.12;97749.78;10352119;28;20033;-57
2022/07/29 06:43:21;;;;;;;19.73;14.80;;;;;;;22.25;72.24;97765.88;10368979;28;20180;-55
2022/07/29 06:48:20;;;;;;;15.60;11.80;;;;;;;22.39;69.95;97763.41;10371379;28;20040;-58
2022/07/29 06:53:19;;;;;;;15.60;12.52;;;;;;;22.65;68.81;97745.41;10373972;28;20049;-55
2022/07/29 06:58:20;;;;;;;13.80;10.82;;;;;;;22.82;66.90;97743.72;10358271;28;20382;-56
2022/07/29 07:03:19;;;;;;;13.80;10.73;;;;;;;23.07;66.39;97752.13;10331549;28;20091;-56
2022/07/29 07:08:19;;;;;;;14.60;11.57;;;;;;;23.36;65.93;97739.16;10362612;28;20060;-56
2022/07/29 07:13:19;;;;;;;12.70;10.68;;;;;;;23.47;62.74;97723.56;10358071;28;20080;-56
2022/07/29 07:18:18;;;;;;;15.13;12.57;;;;;;;23.69;62.41;97744.44;10369526;28;20063;-57
2022/07/29 07:23:17;;;;;;;13.07;10.57;;;;;;;23.83;61.35;97730.44;10369798;28;20041;-57
2022/07/29 07:28:16;;;;;;;13.68;10.80;;;;;;;24.12;61.38;97734.13;10371355;28;20487;-57
2022/07/29 07:33:15;;;;;;;12.70;11.07;;;;;;;24.09;59.01;97730.81;10371864;28;20135;-57
2022/07/29 07:38:14;;;;;;;12.05;10.75;;;;;;;24.38;60.50;97731.81;10369938;28;20107;-57
2022/07/29 07:43:13;;;;;;;11.93;10.63;;;;;;;24.69;59.79;97733.56;10335233;28;20073;-57
2022/07/29 07:48:12;;;;;;;13.45;10.07;;;;;;;24.85;57.25;97731.72;10330823;28;20053;-57
2022/07/29 07:53:11;;;;;;;12.50;10.70;;;;;;;25.06;57.25;97718.13;10341346;28;20381;-57
2022/07/29 07:58:10;;;;;;;12.75;10.30;;;;;;;25.31;56.49;97726.28;10369826;28;20132;-57
2022/07/29 08:03:12;;;;;;;10.70;9.02;;;;;;;25.57;54.51;97729.19;10370701;28;20088;-56
2022/07/29 08:08:11;;;;;;;12.25;9.80;;;;;;;25.66;53.13;97710.00;10369132;28;20504;-56
2022/07/29 08:13:13;;;;;;;11.65;8.43;;;;;;;25.75;51.69;97705.91;10370034;28;20570;-58
2022/07/29 08:18:13;;;;;;;10.50;8.70;;;;;;;26.03;52.27;97710.31;10366507;28;20146;-57
2022/07/29 08:23:12;;;;;;;13.27;8.85;;;;;;;26.25;50.83;97708.94;10370135;28;20060;-57
2022/07/29 08:28:11;;;;;;;8.90;7.93;;;;;;;26.46;49.03;97696.88;10369490;28;20415;-57
2022/07/29 08:33:10;;;;;;;10.50;8.73;;;;;;;26.70;50.05;97689.06;10368740;28;20033;-57
2022/07/29 08:38:09;;;;;;;10.63;8.60;;;;;;;26.78;49.01;97689.41;10369532;28;20029;-57
2022/07/29 08:43:09;;;;;;;14.57;10.70;;;;;;;26.98;49.83;97687.22;10370039;28;20465;-57
2022/07/29 08:48:07;;;;;;;13.45;11.15;;;;;;;27.31;50.28;97676.03;10370357;28;20519;-57
2022/07/29 08:53:10;;;;;;;11.95;9.50;;;;;;;27.46;48.28;97689.22;10369336;28;20518;-58
2022/07/29 08:58:11;;;;;;;13.13;9.57;;;;;;;27.57;48.08;97674.22;10367612;28;20179;-56
2022/07/29 09:03:14;;;;;;;11.10;9.05;;;;;;;27.62;48.91;97668.53;10339596;28;20075;-57
2022/07/29 09:08:15;;;;;;;10.25;9.18;;;;;;;27.86;47.02;97673.06;10369381;28;20096;-57
2022/07/29 09:13:14;;;;;;;9.68;8.68;;;;;;;27.89;46.78;97668.34;10367331;28;20079;-57
2022/07/29 09:18:38;;;;;;;10.13;8.13;;;;;;;28.01;45.19;97666.63;10367262;28;20063;-57
2022/07/29 09:23:39;;;;;;;9.38;8.38;;;;;;;28.13;44.23;97665.75;10358178;28;20485;-57
2022/07/29 09:28:43;;;;;;;11.27;8.55;;;;;;;28.31;45.68;97654.66;10367519;28;20079;-57
2022/07/29 09:33:42;;;;;;;9.50;7.78;;;;;;;28.36;44.12;97656.03;10375904;28;20080;-56
2022/07/29 09:38:41;;;;;;;10.52;7.80;;;;;;;28.62;44.18;97650.53;10390623;28;20457;-57
2022/07/29 09:43:42;;;;;;;11.18;8.50;;;;;;;28.70;44.10;97652.63;10374010;28;20512;-58
2022/07/29 09:48:41;;;;;;;9.32;7.63;;;;;;;28.84;42.85;97636.41;10373617;28;20116;-57
2022/07/29 09:53:40;;;;;;;9.38;7.50;;;;;;;29.08;42.81;97647.00;10375412;28;20029;-57
2022/07/29 09:58:40;;;;;;;9.45;8.07;;;;;;;29.13;42.25;97633.28;10371923;28;20519;-57
2022/07/29 10:03:54;;;;;;;9.57;7.70;;;;;;;29.21;41.27;97630.84;10374744;28;20484;-57
2022/07/29 10:08:54;;;;;;;9.90;7.55;;;;;;;29.26;41.64;97626.88;10368355;28;20064;-57
2022/07/29 10:13:53;;;;;;;9.75;7.97;;;;;;;29.55;41.12;97620.16;10374972;28;20489;-57
2022/07/29 10:18:52;;;;;;;9.65;8.18;;;;;;;29.77;41.10;97612.09;10373591;28;20064;-57
2022/07/29 10:23:52;;;;;;;9.70;8.13;;;;;;;30.03;40.74;97601.97;10373803;28;20052;-57
2022/07/29 10:28:51;;;;;;;9.80;7.95;;;;;;;30.09;40.72;97598.78;10372506;28;20068;-57
2022/07/29 10:33:59;;;;;;;9.65;7.97;;;;;;;30.34;40.29;97589.53;10373485;28;20039;-57
2022/07/29 10:39:19;;;;;;;9.70;8.45;;;;;;;30.50;40.19;97575.72;10373494;28;20089;-57
2022/07/29 10:44:22;;;;;;;9.32;8.10;;;;;;;30.56;39.81;97577.00;10373160;28;20064;-57
2022/07/29 10:49:25;;;;;;;9.20;7.93;;;;;;;30.48;39.81;97558.94;10372666;28;20072;-58
2022/07/29 10:54:36;;;;;;;10.25;7.97;;;;;;;30.58;39.93;97560.81;10372701;28;20077;-57
2022/07/29 10:59:35;;;;;;;9.75;8.75;;;;;;;30.92;38.99;97556.06;10346903;28;20535;-57
2022/07/29 11:04:43;;;;;;;9.52;8.40;;;;;;;31.21;39.02;97556.22;10334280;28;20588;-57
2022/07/29 11:09:45;;;;;;;12.00;8.75;;;;;;;31.37;38.16;97547.66;10372283;28;20056;-56
2022/07/29 11:14:58;;;;;;;9.82;7.63;;;;;;;31.45;37.99;97539.78;10371536;28;20083;-56
2022/07/29 11:20:35;;;;;;;9.88;7.80;;;;;;;31.51;37.07;97533.88;10371627;28;20076;-58
2022/07/29 11:25:33;;;;;;;10.55;7.80;;;;;;;31.61;37.82;97533.03;10371664;28;20064;-56
2022/07/29 11:31:02;;;;;;;11.57;8.18;;;;;;;31.63;36.42;97528.41;10371844;28;20403;-56
2022/07/29 11:36:27;;;;;;;10.07;7.90;;;;;;;31.87;37.25;97526.13;10366014;28;20477;-56
2022/07/29 11:41:28;;;;;;;10.25;8.20;;;;;;;32.11;34.90;97517.69;10369626;28;20079;-57
2022/07/29 11:46:48;;;;;;;8.43;7.55;;;;;;;32.30;35.00;97514.16;10370960;28;20072;-57
2022/07/29 11:51:56;;;;;;;10.63;7.50;;;;;;;32.32;34.49;97509.47;10371667;28;20048;-58
2022/07/29 11:56:57;;;;;;;10.35;6.55;;;;;;;32.39;33.59;97520.50;10368044;28;20117;-56
2022/07/29 12:01:58;;;;;;;8.77;7.20;;;;;;;32.20;33.97;97510.59;10329464;28;20065;-56
2022/07/29 12:06:57;;;;;;;8.65;7.15;;;;;;;32.53;34.10;97508.41;10329893;28;20061;-56
2022/07/29 12:11:57;;;;;;;8.20;7.38;;;;;;;33.20;33.75;97499.28;10330250;28;20029;-56
2022/07/29 12:16:57;;;;;;;8.43;7.22;;;;;;;33.86;32.33;97494.59;10329191;28;20069;-56
2022/07/29 12:21:58;;;;;;;10.63;7.38;;;;;;;34.30;32.51;97498.19;10329563;28;20469;-57
2022/07/29 12:26:58;;;;;;;9.48;7.65;;;;;;;34.07;33.98;97496.97;10370190;28;20069;-56
2022/07/29 12:31:57;;;;;;;11.07;8.50;;;;;;;33.14;35.32;97513.34;10369728;28;20068;-56
2022/07/29 12:36:57;;;;;;;8.85;7.90;;;;;;;32.91;36.42;97503.94;10370585;28;20132;-56
2022/07/29 12:41:56;;;;;;;10.48;7.93;;;;;;;32.80;35.66;97500.44;10369044;28;20081;-56
2022/07/29 12:47:03;;;;;;;9.73;7.93;;;;;;;32.71;36.27;97495.94;10367372;28;20114;-57
2022/07/29 12:52:23;;;;;;;9.27;8.38;;;;;;;32.91;35.57;97499.41;10366572;28;20516;-56
2022/07/29 12:57:23;;;;;;;10.57;8.23;;;;;;;33.05;35.59;97492.69;10368773;28;20056;-56
2022/07/29 13:02:22;;;;;;;10.68;8.32;;;;;;;33.22;35.07;97481.16;10372599;28;20055;-56
2022/07/29 13:07:30;;;;;;;9.57;8.27;;;;;;;33.25;35.86;97480.88;10374550;28;20064;-56
2022/07/29 13:12:29;;;;;;;9.02;8.13;;;;;;;33.21;35.55;97473.25;10372905;28;20120;-58
2022/07/29 13:17:39;;;;;;;9.23;8.30;;;;;;;33.26;35.56;97471.81;10373944;28;20057;-58
2022/07/29 13:22:39;;;;;;;9.98;8.98;;;;;;;33.06;35.50;97464.81;10371951;28;20056;-58
2022/07/29 13:27:44;;;;;;;10.43;8.50;;;;;;;33.09;36.26;97469.03;10376084;28;20076;-58
2022/07/29 13:32:43;;;;;;;9.30;8.40;;;;;;;33.28;35.72;97465.41;10376556;28;20068;-57
2022/07/29 13:37:42;;;;;;;10.10;8.90;;;;;;;33.34;34.75;97462.97;10377370;28;20045;-57
2022/07/29 13:42:41;;;;;;;10.70;7.70;;;;;;;33.36;34.83;97452.91;10376248;28;20575;-57
2022/07/29 13:47:40;;;;;;;9.27;7.68;;;;;;;33.52;34.25;97459.47;10375762;28;20526;-57
2022/07/29 13:52:39;;;;;;;9.27;7.35;;;;;;;33.78;31.56;97454.16;10375871;28;20389;-57
2022/07/29 13:57:38;;;;;;;7.50;6.13;;;;;;;33.12;30.53;97463.41;10375365;28;20108;-57
2022/07/29 14:02:38;;;;;;;7.15;6.45;;;;;;;33.25;30.18;97439.66;10374844;28;20112;-56
2022/07/29 14:07:38;;;;;;;6.80;6.10;;;;;;;33.51;29.98;97438.91;10373832;28;20520;-57
2022/07/29 14:12:37;;;;;;;7.22;6.00;;;;;;;33.50;28.43;97442.63;10374876;28;20116;-56
2022/07/29 14:17:36;;;;;;;7.50;5.80;;;;;;;33.17;28.97;97440.44;10374334;28;20491;-56
2022/07/29 14:22:35;;;;;;;5.85;4.90;;;;;;;32.90;28.48;97443.94;10370616;28;20491;-56
2022/07/29 14:27:34;;;;;;;5.95;4.97;;;;;;;32.68;30.07;97458.63;10371441;28;20470;-56
2022/07/29 14:32:33;;;;;;;5.38;4.88;;;;;;;32.22;29.21;97452.25;10371199;28;20610;-57
2022/07/29 14:37:32;;;;;;;10.60;6.25;;;;;;;31.86;30.95;97480.69;10373763;28;20508;-56
2022/07/29 14:42:31;;;;;;;8.25;6.95;;;;;;;31.64;32.32;97495.19;10373994;28;20049;-56
2022/07/29 14:47:30;;;;;;;13.07;8.75;;;;;;;30.63;41.67;97513.06;10372374;28;20029;-56
2022/07/29 14:52:29;;;;;;;10.73;8.60;;;;;;;29.53;46.25;97512.47;10373055;28;20032;-56
2022/07/29 14:57:28;;;;;;;10.52;8.38;;;;;;;28.67;47.31;97514.88;10372466;28;20028;-58
2022/07/29 15:02:27;;;;;;;9.55;7.60;;;;;;;28.30;47.08;97522.19;10371913;28;20065;-58
2022/07/29 15:07:26;;;;;;;10.45;8.13;;;;;;;28.70;46.91;97524.47;10370190;28;20112;-58
2022/07/29 15:12:25;;;;;;;10.73;8.50;;;;;;;28.64;46.52;97515.94;10371886;28;20135;-57
2022/07/29 15:17:24;;;;;;;9.35;7.57;;;;;;;28.71;45.85;97512.81;10370046;28;20083;-55
2022/07/29 15:22:23;;;;;;;8.82;7.53;;;;;;;28.86;44.34;97499.09;10370340;28;20069;-56
2022/07/29 15:27:22;;;;;;;9.55;7.45;;;;;;;28.98;44.20;97499.94;10332131;28;20049;-56
2022/07/29 15:32:21;;;;;;;9.57;7.75;;;;;;;29.12;44.01;97495.31;10330348;28;20025;-56
2022/07/29 15:37:20;;;;;;;8.30;7.28;;;;;;;29.25;44.01;97504.00;10368710;28;20031;-56
2022/07/29 15:42:19;;;;;;;11.35;8.25;;;;;;;29.57;44.39;97485.38;10370695;28;20539;-56
2022/07/29 15:47:18;;;;;;;10.30;8.38;;;;;;;29.81;44.02;97493.19;10370443;28;20036;-56
2022/07/29 15:52:19;;;;;;;8.02;7.22;;;;;;;29.53;43.62;97480.41;10370082;28;20017;-56
2022/07/29 15:57:18;;;;;;;9.52;7.43;;;;;;;29.40;43.21;97481.41;10371113;28;20464;-56
2022/07/29 16:02:17;;;;;;;9.95;7.65;;;;;;;29.30;43.71;97485.84;10369131;28;20563;-56
2022/07/29 16:07:16;;;;;;;9.55;7.22;;;;;;;29.25;42.83;97487.97;10368894;28;20555;-57
2022/07/29 16:12:15;;;;;;;11.05;9.65;;;;;;;29.27;43.14;97491.41;10370422;28;20079;-57
2022/07/29 16:17:14;;;;;;;11.90;8.98;;;;;;;29.24;42.85;97488.97;10369549;28;20404;-56
2022/07/29 16:22:13;;;;;;;10.05;7.65;;;;;;;29.06;42.35;97500.19;10368660;28;20096;-56
2022/07/29 16:27:12;;;;;;;10.38;8.13;;;;;;;28.78;42.67;97512.22;10370079;28;20092;-56
2022/07/29 16:32:11;;;;;;;8.88;7.47;;;;;;;28.61;43.37;97518.84;10377394;28;20068;-56
2022/07/29 16:37:10;;;;;;;11.93;8.00;;;;;;;28.60;43.12;97521.66;10379094;28;20029;-56
2022/07/29 16:42:09;;;;;;;9.77;7.80;;;;;;;28.57;44.04;97519.19;10378835;28;20142;-56
2022/07/29 16:47:08;;;;;;;9.57;7.35;;;;;;;28.49;44.83;97516.28;10374569;28;20108;-57
2022/07/29 16:52:07;;;;;;;10.93;8.65;;;;;;;28.59;45.06;97511.91;10374446;28;20116;-57
2022/07/29 16:57:06;;;;;;;14.18;9.68;;;;;;;28.68;45.44;97516.56;10374289;28;20166;-57
2022/07/29 17:02:05;;;;;;;9.63;8.40;;;;;;;28.71;45.13;97520.81;10371889;28;20119;-57
2022/07/29 17:07:04;;;;;;;11.23;8.88;;;;;;;28.64;45.50;97510.59;10367024;28;20041;-57
2022/07/29 17:12:03;;;;;;;11.35;8.38;;;;;;;28.62;46.21;97507.19;10334043;28;20068;-57
2022/07/29 17:17:02;;;;;;;12.05;9.32;;;;;;;28.59;47.02;97507.41;10335376;28;20065;-56
2022/07/29 17:22:03;;;;;;;11.95;9.77;;;;;;;28.53;47.86;97512.41;10334792;28;20091;-56
2022/07/29 17:27:02;;;;;;;10.40;9.27;;;;;;;28.45;48.12;97511.19;10334548;28;20501;-56
2022/07/29 17:32:02;;;;;;;12.02;9.13;;;;;;;28.28;49.16;97511.63;10332725;28;20068;-56
2022/07/29 17:37:02;;;;;;;14.88;9.68;;;;;;;28.08;49.98;97510.50;10331232;28;20087;-56
2022/07/29 17:42:05;;;;;;;12.07;9.30;;;;;;;27.89;50.52;97504.81;10335093;28;20084;-56
2022/07/29 17:47:05;;;;;;;10.27;9.15;;;;;;;27.70;50.94;97513.34;10333980;28;20064;-57
2022/07/29 17:52:04;;;;;;;13.85;10.13;;;;;;;27.50;51.76;97518.34;10334651;28;20163;-56
2022/07/29 17:57:03;;;;;;;12.40;9.77;;;;;;;27.28;52.75;97513.69;10353085;28;20512;-58
2022/07/29 18:02:02;;;;;;;13.93;10.40;;;;;;;27.05;53.52;97518.06;10374488;28;20488;-57
2022/07/29 18:07:01;;;;;;;13.68;10.88;;;;;;;26.94;54.58;97525.97;10373308;28;20033;-56
2022/07/29 18:12:00;;;;;;;13.57;10.52;;;;;;;26.70;55.44;97523.19;10372520;28;20044;-57
2022/07/29 18:16:59;;;;;;;13.68;11.55;;;;;;;26.53;56.77;97532.34;10373286;28;20037;-57
2022/07/29 18:21:58;;;;;;;14.35;11.40;;;;;;;26.33;57.20;97541.72;10373550;28;20035;-57
2022/07/29 18:26:57;;;;;;;13.35;10.80;;;;;;;26.21;57.17;97545.22;10374365;28;20079;-57
2022/07/29 18:31:57;;;;;;;11.65;10.45;;;;;;;26.11;57.26;97543.16;10371919;28;20032;-57
2022/07/29 18:36:56;;;;;;;15.10;11.23;;;;;;;26.03;57.74;97557.91;10369585;28;20136;-57
2022/07/29 18:41:55;;;;;;;14.95;9.77;;;;;;;25.92;58.26;97555.94;10370202;28;20050;-57
2022/07/29 18:46:54;;;;;;;13.02;10.40;;;;;;;25.79;58.84;97552.41;10371414;28;20049;-57
2022/07/29 18:51:55;;;;;;;12.63;10.02;;;;;;;25.63;59.32;97561.38;10372311;28;20073;-59
2022/07/29 18:56:54;;;;;;;14.38;10.43;;;;;;;25.46;59.88;97554.47;10372669;28;20072;-56
2022/07/29 19:01:53;;;;;;;12.60;10.80;;;;;;;25.32;60.11;97562.50;10372873;28;20029;-56
2022/07/29 19:06:52;;;;;;;13.65;10.98;;;;;;;25.22;60.84;97574.63;10365148;28;20440;-58
2022/07/29 19:11:51;;;;;;;21.40;16.20;;;;;;;24.97;65.22;97580.66;10330834;28;20075;-56
2022/07/29 19:16:51;;;;;;;17.10;14.32;;;;;;;24.81;66.94;97580.72;10328449;28;20348;-56
2022/07/29 19:21:50;;;;;;;15.70;13.48;;;;;;;24.58;67.98;97584.75;10327817;28;20033;-56
2022/07/29 19:26:49;;;;;;;16.13;13.52;;;;;;;24.34;69.59;97581.78;10326111;28;20042;-56
2022/07/29 19:31:48;;;;;;;17.25;14.90;;;;;;;24.21;70.19;97573.69;10328176;28;20033;-56
2022/07/29 19:36:47;;;;;;;18.23;14.93;;;;;;;24.13;70.10;97581.22;10327246;28;20053;-56
2022/07/29 19:41:46;;;;;;;16.80;14.85;;;;;;;24.10;70.37;97586.69;10326469;28;20076;-57
2022/07/29 19:46:45;;;;;;;16.70;14.15;;;;;;;24.05;70.93;97598.44;10328293;28;20073;-57
2022/07/29 19:51:44;;;;;;;17.45;14.40;;;;;;;23.93;72.53;97587.66;10328470;28;20040;-57
2022/07/29 19:56:43;;;;;;;16.40;14.10;;;;;;;23.87;72.67;97583.59;10344985;28;20112;-56
2022/07/29 20:01:42;;;;;;;19.40;15.13;;;;;;;23.82;72.86;97590.97;10371825;28;20064;-56
2022/07/29 20:06:41;;;;;;;18.23;14.02;;;;;;;23.80;73.17;97587.53;10369678;28;20118;-56
2022/07/29 20:11:40;;;;;;;16.50;13.45;;;;;;;23.77;73.46;97587.69;10368114;28;20500;-57
2022/07/29 20:16:39;;;;;;;15.48;13.55;;;;;;;23.74;72.86;97587.88;10367630;28;20056;-56
2022/07/29 20:21:38;;;;;;;18.98;14.15;;;;;;;23.77;72.79;97585.03;10367304;28;20645;-56
2022/07/29 20:26:37;;;;;;;16.13;12.27;;;;;;;23.76;72.43;97580.69;10366536;28;20029;-56
2022/07/29 20:31:36;;;;;;;15.73;13.23;;;;;;;23.75;72.10;97586.94;10367226;28;20408;-56
2022/07/29 20:36:35;;;;;;;15.13;13.35;;;;;;;23.71;71.82;97585.41;10368081;28;20344;-56
2022/07/29 20:41:34;;;;;;;20.75;14.48;;;;;;;23.68;71.58;97582.91;10367163;28;20177;-58
2022/07/29 20:46:33;;;;;;;15.65;13.65;;;;;;;23.66;72.34;97584.81;10367785;28;20155;-58
2022/07/29 20:51:33;;;;;;;16.50;13.95;;;;;;;23.47;73.31;97591.16;10366638;28;20160;-57
2022/07/29 20:56:31;;;;;;;17.60;14.48;;;;;;;23.30;73.90;97588.53;10368755;28;20352;-56
2022/07/29 21:01:30;;;;;;;18.65;14.57;;;;;;;23.19;74.19;97583.84;10368731;28;20032;-56
2022/07/29 21:06:30;;;;;;;17.23;13.48;;;;;;;23.10;73.95;97587.00;10368879;28;20546;-56
2022/07/29 21:11:29;;;;;;;17.25;14.70;;;;;;;22.98;74.22;97580.59;10368640;28;20073;-57
2022/07/29 21:16:29;;;;;;;20.65;15.23;;;;;;;22.90;74.35;97585.41;10375548;28;20033;-57
2022/07/29 21:21:28;;;;;;;18.63;15.60;;;;;;;22.76;75.04;97576.44;10375926;28;20072;-57
2022/07/29 21:26:27;;;;;;;19.65;15.70;;;;;;;22.80;75.00;97577.13;10375285;28;20064;-57
2022/07/29 21:31:27;;;;;;;18.08;15.52;;;;;;;22.76;75.50;97578.22;10375617;28;20103;-57
2022/07/29 21:36:26;;;;;;;18.83;15.27;;;;;;;22.72;75.55;97582.78;10374893;28;20065;-57
2022/07/29 21:41:25;;;;;;;17.55;15.65;;;;;;;22.66;76.04;97577.81;10375390;28;20140;-57
2022/07/29 21:46:24;;;;;;;17.63;15.70;;;;;;;22.58;76.31;97585.31;10374540;28;20057;-57
2022/07/29 21:51:23;;;;;;;19.40;15.30;;;;;;;22.51;76.72;97581.28;10375335;28;20067;-57
2022/07/29 21:56:22;;;;;;;17.45;14.73;;;;;;;22.44;76.61;97582.53;10375340;28;20025;-57
2022/07/29 22:01:22;;;;;;;19.55;14.60;;;;;;;22.46;76.38;97586.81;10375116;28;20083;-57
2022/07/29 22:06:21;;;;;;;16.08;13.93;;;;;;;22.45;76.35;97569.22;10372507;28;20532;-57
2022/07/29 22:11:20;;;;;;;17.23;14.50;;;;;;;22.52;75.64;97569.75;10334050;28;20029;-57
2022/07/29 22:16:19;;;;;;;14.57;13.02;;;;;;;22.51;76.03;97565.41;10332311;28;20103;-57
2022/07/29 22:21:18;;;;;;;15.75;13.68;;;;;;;22.51;75.61;97562.78;10330325;28;20037;-58
2022/07/29 22:26:17;;;;;;;16.00;13.93;;;;;;;22.44;76.16;97561.38;10350295;28;20300;-57
2022/07/29 22:31:16;;;;;;;17.00;14.98;;;;;;;22.38;76.08;97555.44;10373124;28;20036;-57
2022/07/29 22:36:15;;;;;;;17.63;14.35;;;;;;;22.29;77.28;97565.66;10372377;28;20033;-57
2022/07/29 22:41:14;;;;;;;19.63;14.63;;;;;;;22.07;78.31;97568.53;10373807;28;20084;-57
2022/07/29 22:46:13;;;;;;;16.38;14.55;;;;;;;21.84;78.99;97567.88;10373633;28;20025;-57
2022/07/29 22:51:12;;;;;;;18.40;14.85;;;;;;;21.71;79.49;97566.75;10373140;28;20052;-57
2022/07/29 22:56:11;;;;;;;17.58;15.60;;;;;;;21.61;80.47;97560.22;10373362;28;20091;-57
2022/07/29 23:01:11;;;;;;;19.38;15.77;;;;;;;21.53;80.66;97564.09;10372865;28;20067;-57